Terminal Aerodrome Forecast
Issued by NWS

Home | Current Version | Previous Version | Graphics & Text | Print | Product List | Glossary On
Versions: 1 2 3 4 5 6 7 8 9 10 11 12 13 14 15 16 17 18 19 20 21 22 23 24 25
000
FTUS43 KTOP 252300
TAFMHK
TAF
KMHK 252322Z 2600/2624 02012G22KT 5SM -RA BR BKN015 OVC050
     FM260200 01010KT 6SM -RA BR BKN025 OVC060
     FM260400 01005KT P6SM SCT050 BKN100
      TEMPO 2610/2613 3SM BR=

USA.gov is the U.S. government's official web portal to all federal, state and local government web resources and services.